Time;durP1;ratioP1;P1;durP2;ratioP2;P2;SDS_P1;SDS_P2;PMS_P1;PMS_P2;Temp;Humidity;BMP_temperature;BMP_pressure;BME280_temperature;BME280_humidity;BME280_pressure;Samples;Min_cycle;Max_cycle;Signal;HPM_P1;HPM_P2
2024/01/20 00:00:56;;;;;;;0.50;0.10;;;-0.40;99.90;;;;;;5052181;28;20442;-74
2024/01/20 00:03:24;;;;;;;0.50;0.10;;;-0.40;99.90;;;;;;5052236;28;20552;-74
2024/01/20 00:05:53;;;;;;;0.50;0.10;;;-3.00;99.90;;;;;;5051974;28;20922;-73
2024/01/20 00:08:21;;;;;;;0.50;0.10;;;-0.30;99.90;;;;;;5051913;28;20533;-72
2024/01/20 00:10:50;;;;;;;0.50;0.10;;;-0.30;99.90;;;;;;5051643;28;20443;-73
2024/01/20 00:13:18;;;;;;;0.50;0.10;;;-0.30;99.90;;;;;;5051656;28;20930;-73
2024/01/20 00:15:46;;;;;;;0.50;0.20;;;-0.30;99.90;;;;;;5049837;28;20477;-73
2024/01/20 00:18:14;;;;;;;1.37;1.27;;;-0.40;99.90;;;;;;5051528;28;20961;-73
2024/01/20 00:20:44;;;;;;;1.30;1.30;;;-0.50;99.90;;;;;;5051591;28;20439;-73
2024/01/20 00:23:12;;;;;;;0.50;0.10;;;-0.50;99.90;;;;;;5052112;28;20537;-74
2024/01/20 00:25:41;;;;;;;0.50;0.10;;;-0.60;99.90;;;;;;5050996;28;20449;-73
2024/01/20 00:28:10;;;;;;;1.07;0.97;;;-0.50;99.90;;;;;;5051351;28;20484;-73
2024/01/20 00:30:38;;;;;;;0.50;0.10;;;-0.60;99.90;;;;;;5051469;28;20493;-73
2024/01/20 00:33:08;;;;;;;0.50;0.10;;;-0.60;99.90;;;;;;5051507;28;20481;-73
2024/01/20 00:35:36;;;;;;;0.50;0.10;;;-0.60;99.90;;;;;;5054894;28;20561;-72
2024/01/20 00:38:04;;;;;;;0.70;0.47;;;-0.60;99.90;;;;;;5051414;28;20542;-72
2024/01/20 00:40:32;;;;;;;0.50;0.10;;;-0.60;99.90;;;;;;5051437;28;20446;-73
2024/01/20 00:43:00;;;;;;;0.50;0.30;;;-0.60;99.90;;;;;;5051537;28;20949;-73
2024/01/20 00:45:29;;;;;;;0.60;0.20;;;-0.60;99.90;;;;;;5051630;28;20453;-71
2024/01/20 00:47:57;;;;;;;0.50;0.10;;;-0.60;99.90;;;;;;5052178;28;20489;-73
2024/01/20 00:50:25;;;;;;;0.50;0.10;;;-0.60;99.90;;;;;;5047690;28;20455;-74
2024/01/20 00:52:53;;;;;;;0.50;0.10;;;-0.60;99.90;;;;;;5051543;28;20480;-73
2024/01/20 00:55:21;;;;;;;0.50;0.10;;;-0.60;99.90;;;;;;5051995;28;20442;-73
2024/01/20 00:57:49;;;;;;;0.50;0.10;;;-0.60;99.90;;;;;;5051214;28;20577;-73
2024/01/20 01:00:17;;;;;;;0.50;0.10;;;-0.60;99.90;;;;;;5051133;28;20993;-72
2024/01/20 01:02:46;;;;;;;0.50;0.10;;;-0.70;99.90;;;;;;5051397;28;20487;-73
2024/01/20 01:05:14;;;;;;;0.50;0.10;;;-1.10;99.90;;;;;;5051295;28;20442;-72
2024/01/20 01:07:42;;;;;;;0.50;0.10;;;-0.70;99.90;;;;;;5049175;28;20482;-73
2024/01/20 01:10:10;;;;;;;0.50;0.10;;;-0.80;99.90;;;;;;5050717;28;20982;-73
2024/01/20 01:12:38;;;;;;;0.70;0.67;;;-0.80;99.90;;;;;;5050855;28;20478;-73
2024/01/20 01:15:06;;;;;;;0.50;0.10;;;-0.80;99.90;;;;;;5050675;28;20759;-74
2024/01/20 01:17:34;;;;;;;3.17;3.03;;;-0.90;99.90;;;;;;5050724;28;20466;-74
2024/01/20 01:20:04;;;;;;;0.50;0.40;;;-0.90;99.90;;;;;;5039162;28;20447;-74
2024/01/20 01:22:32;;;;;;;0.50;0.10;;;-1.00;99.90;;;;;;5039594;28;20442;-73
2024/01/20 01:25:00;;;;;;;0.50;0.10;;;-1.00;99.90;;;;;;5051103;28;20970;-73
2024/01/20 01:27:28;;;;;;;0.50;0.10;;;-1.00;99.90;;;;;;5051287;28;20477;-73
2024/01/20 01:29:56;;;;;;;0.50;0.10;;;-1.00;99.90;;;;;;5043225;28;20511;-74
2024/01/20 01:32:25;;;;;;;0.50;0.10;;;-1.00;99.90;;;;;;5054085;28;20466;-72
2024/01/20 01:34:54;;;;;;;0.50;0.10;;;-1.10;99.90;;;;;;5069948;28;20446;-72
2024/01/20 01:37:23;;;;;;;0.50;0.10;;;-1.00;99.90;;;;;;5069407;28;20469;-73
2024/01/20 01:39:51;;;;;;;0.50;0.10;;;-1.00;99.90;;;;;;5066920;28;20531;-74
2024/01/20 01:42:19;;;;;;;0.50;0.10;;;-1.00;99.90;;;;;;5076661;28;20472;-73
2024/01/20 01:44:47;;;;;;;0.50;0.10;;;-4.80;99.90;;;;;;5064163;28;20529;-73
2024/01/20 01:47:15;;;;;;;0.50;0.20;;;-1.00;99.90;;;;;;5057303;28;20851;-73
2024/01/20 01:49:43;;;;;;;0.50;0.10;;;;;;;;;;5056171;28;20445;-72
2024/01/20 01:52:12;;;;;;;0.70;0.67;;;-1.00;99.90;;;;;;5055605;28;20446;-73
2024/01/20 01:54:42;;;;;;;0.50;0.10;;;-1.00;99.90;;;;;;5055391;28;20532;-73
2024/01/20 01:57:10;;;;;;;0.50;0.10;;;-1.00;99.90;;;;;;5054783;28;20497;-73
2024/01/20 01:59:39;;;;;;;0.50;0.10;;;-1.00;99.90;;;;;;5054553;28;20954;-74
2024/01/20 02:02:07;;;;;;;0.50;0.10;;;-0.90;99.90;;;;;;5057988;28;20473;-73
2024/01/20 02:04:35;;;;;;;1.33;0.90;;;-1.00;99.90;;;;;;5057179;28;20981;-73
2024/01/20 02:07:03;;;;;;;0.60;0.20;;;-1.20;99.90;;;;;;5054340;28;20807;-72
2024/01/20 02:09:32;;;;;;;2.10;1.90;;;-1.30;99.90;;;;;;5054442;28;20442;-72
2024/01/20 02:12:03;;;;;;;0.50;0.10;;;-1.30;99.90;;;;;;5054739;28;20469;-72
2024/01/20 02:14:31;;;;;;;0.60;0.43;;;-1.40;99.90;;;;;;5051788;28;20486;-74
2024/01/20 02:16:59;;;;;;;0.50;0.10;;;-1.30;99.90;;;;;;5054224;28;20563;-73
2024/01/20 02:19:27;;;;;;;0.50;0.10;;;-1.30;99.90;;;;;;5053462;28;20529;-73
2024/01/20 02:21:55;;;;;;;0.50;0.10;;;;;;;;;;5045891;28;20453;-74
2024/01/20 02:24:24;;;;;;;1.67;1.57;;;-1.40;99.90;;;;;;5052642;28;20946;-74
2024/01/20 02:26:53;;;;;;;1.33;1.23;;;-1.40;99.90;;;;;;5058490;28;20481;-74
2024/01/20 02:29:21;;;;;;;0.60;0.20;;;-1.40;99.90;;;;;;5054054;28;20453;-73
2024/01/20 02:31:49;;;;;;;0.50;0.10;;;-1.30;99.90;;;;;;5054260;28;20488;-74
2024/01/20 02:34:16;;;;;;;0.50;0.10;;;-1.30;99.90;;;;;;5053974;28;20858;-73
2024/01/20 02:36:44;;;;;;;0.60;0.10;;;-1.20;99.90;;;;;;5054238;28;20489;-73
2024/01/20 02:39:12;;;;;;;0.50;0.10;;;-1.10;99.90;;;;;;5054121;28;20544;-73
2024/01/20 02:41:41;;;;;;;0.50;0.10;;;-1.00;99.90;;;;;;5054243;28;20542;-73
2024/01/20 02:44:09;;;;;;;0.70;0.47;;;-0.90;99.90;;;;;;5050193;28;20450;-73
2024/01/20 02:46:37;;;;;;;0.50;0.10;;;-0.90;99.90;;;;;;5053716;28;20486;-74
2024/01/20 02:49:05;;;;;;;0.50;0.10;;;-0.90;99.90;;;;;;5052597;28;20473;-73
2024/01/20 02:51:33;;;;;;;0.50;0.20;;;-0.90;99.90;;;;;;5054008;28;20446;-74
2024/01/20 02:54:01;;;;;;;0.50;0.10;;;-1.00;99.90;;;;;;5053682;28;21911;-74
2024/01/20 02:56:29;;;;;;;0.50;0.10;;;-1.00;99.90;;;;;;5076891;22;20482;-73
2024/01/20 02:58:58;;;;;;;0.50;0.10;;;-1.00;99.90;;;;;;5045813;28;20884;-73
2024/01/20 03:01:26;;;;;;;0.50;0.10;;;-1.00;99.90;;;;;;5042868;28;20550;-73
2024/01/20 03:03:54;;;;;;;0.50;0.10;;;-1.00;99.90;;;;;;5052326;28;20430;-73
2024/01/20 03:06:22;;;;;;;0.50;0.20;;;-1.10;99.90;;;;;;5054340;28;20492;-73
2024/01/20 03:08:50;;;;;;;0.50;0.10;;;-1.10;99.90;;;;;;5046212;28;20431;-73
2024/01/20 03:11:18;;;;;;;0.50;0.13;;;-1.10;99.90;;;;;;5042554;28;20440;-73
2024/01/20 03:13:46;;;;;;;0.50;0.10;;;-1.20;99.90;;;;;;5048443;28;20938;-73
2024/01/20 03:16:15;;;;;;;0.50;0.10;;;-1.20;99.90;;;;;;5051073;28;20463;-73
2024/01/20 03:18:43;;;;;;;0.83;0.83;;;-1.20;99.90;;;;;;5049618;28;20489;-73
2024/01/20 03:21:11;;;;;;;0.50;0.10;;;-1.30;99.90;;;;;;5052465;28;20533;-72
2024/01/20 03:23:39;;;;;;;0.50;0.10;;;-1.20;99.90;;;;;;5046339;28;20453;-72
2024/01/20 03:26:08;;;;;;;0.50;0.10;;;-1.20;99.90;;;;;;5047671;28;20549;-73
2024/01/20 03:28:37;;;;;;;1.83;1.77;;;-1.30;99.90;;;;;;5050585;28;20461;-73
2024/01/20 03:31:05;;;;;;;0.50;0.10;;;-1.30;99.90;;;;;;5044069;28;20516;-72
2024/01/20 03:33:34;;;;;;;0.50;0.10;;;-1.30;99.90;;;;;;5048442;28;20568;-71
2024/01/20 03:36:02;;;;;;;0.50;0.10;;;-1.30;99.90;;;;;;5034457;28;20827;-72
2024/01/20 03:38:30;;;;;;;0.50;0.10;;;-1.20;99.90;;;;;;5047396;28;20461;-72
2024/01/20 03:40:58;;;;;;;0.50;0.10;;;-1.20;99.90;;;;;;5050159;28;20446;-72
2024/01/20 03:43:26;;;;;;;0.50;0.10;;;-1.20;99.90;;;;;;5041526;28;20983;-72
2024/01/20 03:45:54;;;;;;;0.50;0.10;;;-1.20;99.90;;;;;;5042806;28;20483;-73
2024/01/20 03:48:22;;;;;;;0.50;0.10;;;-1.20;99.90;;;;;;5042407;28;20489;-72
2024/01/20 03:50:51;;;;;;;0.50;0.10;;;-1.20;99.90;;;;;;5053286;28;20529;-73
2024/01/20 03:53:19;;;;;;;0.50;0.10;;;-1.20;99.90;;;;;;5053304;28;20462;-72
2024/01/20 03:55:47;;;;;;;0.50;0.20;;;-1.20;99.90;;;;;;5053425;28;20477;-73
2024/01/20 03:58:15;;;;;;;0.50;0.10;;;-1.20;99.90;;;;;;5053845;28;20496;-74
2024/01/20 04:00:43;;;;;;;0.50;0.10;;;-1.30;99.90;;;;;;5055912;28;20509;-73
2024/01/20 04:03:11;;;;;;;4.10;3.90;;;-1.30;99.90;;;;;;5054013;28;20446;-73
2024/01/20 04:05:40;;;;;;;0.50;0.10;;;-1.30;99.90;;;;;;5055718;28;20493;-73
2024/01/20 04:08:09;;;;;;;0.50;0.20;;;-1.30;99.90;;;;;;5057060;28;20446;-73
2024/01/20 04:10:37;;;;;;;0.50;0.10;;;-1.30;99.90;;;;;;5058194;28;20442;-73
2024/01/20 04:13:05;;;;;;;0.50;0.10;;;-1.30;99.90;;;;;;5064017;28;20454;-73
2024/01/20 04:15:32;;;;;;;0.50;0.10;;;-1.30;99.90;;;;;;5063186;28;20490;-73
2024/01/20 04:18:00;;;;;;;0.50;0.20;;;-1.30;99.90;;;;;;5062497;28;20500;-73
2024/01/20 04:20:28;;;;;;;0.50;0.20;;;-1.30;99.90;;;;;;5053566;28;20531;-72
2024/01/20 04:22:56;;;;;;;0.50;0.10;;;-1.30;99.90;;;;;;5059613;28;20484;-73
2024/01/20 04:25:25;;;;;;;0.50;0.10;;;-1.30;99.90;;;;;;5060531;28;20520;-73
2024/01/20 04:27:53;;;;;;;0.60;0.47;;;-1.30;99.90;;;;;;5061394;28;20500;-73
2024/01/20 04:30:21;;;;;;;0.50;0.10;;;-1.20;99.90;;;;;;5061315;28;20447;-73
2024/01/20 04:32:52;;;;;;;0.50;0.10;;;-1.20;99.90;;;;;;5052734;28;20829;-73
2024/01/20 04:35:20;;;;;;;0.50;0.10;;;-1.20;99.90;;;;;;5058980;28;20504;-72
2024/01/20 04:37:47;;;;;;;0.60;0.20;;;-1.20;99.90;;;;;;5066185;28;20537;-73
2024/01/20 04:40:15;;;;;;;11.00;10.50;;;-1.10;99.90;;;;;;5067752;28;20942;-72
2024/01/20 04:42:45;;;;;;;0.50;0.10;;;-1.10;99.90;;;;;;5051016;28;20450;-73
2024/01/20 04:45:14;;;;;;;0.50;0.10;;;-1.00;99.90;;;;;;5055156;28;20446;-73
2024/01/20 04:47:42;;;;;;;0.50;0.10;;;-1.10;99.90;;;;;;5049203;28;20469;-72
2024/01/20 04:50:10;;;;;;;0.50;0.10;;;-1.10;99.90;;;;;;5050305;28;20506;-72
2024/01/20 04:52:38;;;;;;;0.50;0.10;;;-1.10;99.90;;;;;;5047502;28;20488;-73
2024/01/20 04:55:06;;;;;;;0.50;0.10;;;-1.40;99.90;;;;;;5062029;28;20509;-73
2024/01/20 04:57:34;;;;;;;0.60;0.57;;;-1.00;99.90;;;;;;5056219;28;20513;-72
2024/01/20 05:00:04;;;;;;;0.50;0.10;;;-1.00;99.90;;;;;;5056271;28;20995;-73
2024/01/20 05:02:35;;;;;;;0.50;0.10;;;-1.10;99.90;;;;;;5042698;28;20972;-73
2024/01/20 05:05:04;;;;;;;0.50;0.10;;;-1.00;99.90;;;;;;5034363;28;20453;-72
2024/01/20 05:07:32;;;;;;;0.50;0.10;;;-1.00;99.90;;;;;;5049473;28;20489;-73
2024/01/20 05:10:00;;;;;;;1.30;1.23;;;-1.10;99.90;;;;;;5048586;28;20439;-73
2024/01/20 05:12:28;;;;;;;0.50;0.10;;;-1.10;99.90;;;;;;5044338;28;20444;-73
2024/01/20 05:14:57;;;;;;;0.50;0.10;;;-1.20;99.90;;;;;;5054920;28;20485;-73
2024/01/20 05:17:26;;;;;;;0.53;0.10;;;-1.10;99.90;;;;;;5043148;28;20516;-73
2024/01/20 05:19:54;;;;;;;0.50;0.10;;;-1.10;99.90;;;;;;5050364;28;20446;-73
2024/01/20 05:22:22;;;;;;;0.50;0.10;;;-1.10;99.90;;;;;;5061651;28;20469;-73
2024/01/20 05:24:50;;;;;;;0.50;0.10;;;-1.00;99.90;;;;;;5055812;28;20512;-73
2024/01/20 05:27:17;;;;;;;0.50;0.10;;;-1.10;99.90;;;;;;5062105;28;20553;-73
2024/01/20 05:29:45;;;;;;;0.50;0.10;;;-1.10;99.90;;;;;;5058514;28;20961;-73
2024/01/20 05:32:15;;;;;;;0.50;0.10;;;-1.10;99.90;;;;;;5058045;28;20439;-72
2024/01/20 05:34:44;;;;;;;0.50;0.10;;;-1.10;99.90;;;;;;5063251;28;20461;-72
2024/01/20 05:37:12;;;;;;;0.50;0.10;;;-1.10;99.90;;;;;;5057346;28;20504;-72
2024/01/20 05:39:40;;;;;;;0.50;0.10;;;-1.20;99.90;;;;;;5055709;28;20468;-74
2024/01/20 05:42:08;;;;;;;0.50;0.10;;;-1.20;99.90;;;;;;5054802;28;20496;-72
2024/01/20 05:44:35;;;;;;;0.50;0.10;;;-1.30;99.90;;;;;;5046151;28;20541;-73
2024/01/20 05:47:04;;;;;;;0.50;0.10;;;-1.30;99.90;;;;;;5054278;28;20485;-73
2024/01/20 05:49:32;;;;;;;0.50;0.10;;;-1.40;99.90;;;;;;5042726;28;20451;-73
2024/01/20 05:52:01;;;;;;;0.60;0.17;;;-1.40;99.90;;;;;;5049947;28;20569;-72
2024/01/20 05:54:29;;;;;;;0.50;0.10;;;;;;;;;;5045850;28;20446;-72
2024/01/20 05:56:57;;;;;;;6.40;6.03;;;-1.50;99.90;;;;;;5053266;28;20598;-72
2024/01/20 05:59:25;;;;;;;0.50;0.17;;;-1.60;99.90;;;;;;5052295;28;20450;-72
2024/01/20 06:01:53;;;;;;;0.50;0.27;;;-1.60;99.90;;;;;;5043879;28;20475;-71
2024/01/20 06:04:21;;;;;;;0.80;0.60;;;-1.50;99.90;;;;;;5050242;28;20539;-72
2024/01/20 06:06:49;;;;;;;6.80;6.37;;;-1.60;99.90;;;;;;5051102;28;20469;-72
2024/01/20 06:09:19;;;;;;;0.50;0.33;;;-1.60;99.90;;;;;;5047516;28;20494;-72
2024/01/20 06:11:47;;;;;;;0.50;0.20;;;-1.60;99.90;;;;;;5040502;28;20504;-73
2024/01/20 06:14:14;;;;;;;0.50;0.10;;;-1.70;99.90;;;;;;5035724;28;20443;-73
2024/01/20 06:16:42;;;;;;;0.50;0.10;;;-1.70;99.90;;;;;;5045884;28;20493;-73
2024/01/20 06:19:10;;;;;;;1.70;1.60;;;-1.60;99.90;;;;;;5049220;28;20473;-73
2024/01/20 06:21:38;;;;;;;0.50;0.10;;;-1.60;99.90;;;;;;5051035;28;20503;-73
2024/01/20 06:24:06;;;;;;;0.50;0.10;;;-1.60;99.90;;;;;;5045351;28;20440;-73
2024/01/20 06:26:35;;;;;;;0.50;0.20;;;-1.60;99.90;;;;;;5046042;28;20481;-73
2024/01/20 06:29:03;;;;;;;1.00;0.63;;;-1.70;99.90;;;;;;5046033;28;20968;-72
2024/01/20 06:31:31;;;;;;;3.70;3.50;;;-1.70;99.90;;;;;;5053346;28;20989;-73
2024/01/20 06:33:59;;;;;;;1.03;0.93;;;-1.70;99.90;;;;;;5037569;28;20534;-72
2024/01/20 06:36:27;;;;;;;0.50;0.10;;;-1.80;99.90;;;;;;5040970;28;20490;-73
2024/01/20 06:38:55;;;;;;;0.50;0.10;;;-1.80;99.90;;;;;;5042685;28;20445;-72
2024/01/20 06:41:23;;;;;;;0.63;0.50;;;-1.80;99.90;;;;;;5054810;28;20468;-72
2024/01/20 06:43:52;;;;;;;0.50;0.20;;;-1.80;99.90;;;;;;5054303;28;20480;-74
2024/01/20 06:46:20;;;;;;;0.50;0.10;;;-1.80;99.90;;;;;;5046078;28;20911;-73
2024/01/20 06:48:48;;;;;;;0.50;0.10;;;-1.70;99.90;;;;;;5054104;28;20450;-73
2024/01/20 06:51:16;;;;;;;0.60;0.40;;;-1.70;99.90;;;;;;5042598;28;20507;-73
2024/01/20 06:53:44;;;;;;;0.50;0.10;;;-1.60;99.90;;;;;;5053738;28;20446;-73
2024/01/20 06:56:12;;;;;;;1.50;1.40;;;-1.70;99.90;;;;;;5051921;28;20482;-73
2024/01/20 06:58:40;;;;;;;0.50;0.10;;;-1.70;99.90;;;;;;5042962;28;20534;-73
2024/01/20 07:01:10;;;;;;;0.50;0.20;;;-1.70;99.90;;;;;;5036975;28;20454;-73
2024/01/20 07:03:38;;;;;;;0.50;0.10;;;-1.70;99.90;;;;;;5050460;28;20474;-72
2024/01/20 07:06:07;;;;;;;7.30;2.57;;;-1.70;99.90;;;;;;5050619;28;20458;-72
2024/01/20 07:08:35;;;;;;;0.50;0.10;;;-1.80;99.90;;;;;;5045554;28;20447;-73
2024/01/20 07:11:08;;;;;;;0.93;0.93;;;-1.70;99.90;;;;;;5045493;28;20530;-73
2024/01/20 07:13:36;;;;;;;0.50;0.10;;;-1.70;99.90;;;;;;5047334;28;20571;-73
2024/01/20 07:16:11;;;;;;;0.50;0.20;;;-1.70;99.90;;;;;;5053727;28;20505;-73
2024/01/20 07:18:39;;;;;;;3.90;1.37;;;-1.70;99.90;;;;;;5034232;28;20861;-73
2024/01/20 07:21:07;;;;;;;0.50;0.10;;;-1.70;99.90;;;;;;5041261;28;20466;-73
2024/01/20 07:23:35;;;;;;;0.50;0.20;;;-1.70;99.90;;;;;;5053298;28;20446;-73
2024/01/20 07:26:03;;;;;;;0.50;0.10;;;-1.70;99.90;;;;;;5053350;28;20548;-73
2024/01/20 07:28:31;;;;;;;0.50;0.10;;;-1.70;99.90;;;;;;5046515;28;20448;-73
2024/01/20 07:30:59;;;;;;;0.50;0.10;;;-1.70;99.90;;;;;;5044853;28;20453;-73
2024/01/20 07:33:28;;;;;;;0.70;0.43;;;-1.70;99.90;;;;;;5052440;28;20443;-73
2024/01/20 07:35:56;;;;;;;0.50;0.20;;;-1.80;99.90;;;;;;5052418;28;20473;-73
2024/01/20 07:38:24;;;;;;;0.50;0.10;;;-1.80;99.90;;;;;;5052463;28;20500;-73
2024/01/20 07:40:53;;;;;;;0.50;0.10;;;-1.70;99.90;;;;;;5052194;28;20836;-72
2024/01/20 07:43:21;;;;;;;0.50;0.10;;;-1.60;99.90;;;;;;5052746;28;20448;-73
2024/01/20 07:45:53;;;;;;;0.50;0.10;;;-1.50;99.90;;;;;;5052245;28;20474;-73
2024/01/20 07:48:21;;;;;;;0.50;0.10;;;-1.50;99.90;;;;;;5052724;28;20496;-74
2024/01/20 07:50:51;;;;;;;0.50;0.37;;;-1.50;99.90;;;;;;5052082;28;20450;-72
2024/01/20 07:53:19;;;;;;;0.50;0.10;;;-1.40;99.90;;;;;;5052628;28;21005;-73
2024/01/20 07:55:46;;;;;;;0.50;0.10;;;-2.70;99.90;;;;;;5051532;28;21013;-73
2024/01/20 07:58:14;;;;;;;40.23;6.43;;;-1.40;99.90;;;;;;5052358;28;20442;-73
2024/01/20 08:00:42;;;;;;;0.50;0.10;;;-1.40;99.90;;;;;;5051565;28;20926;-73
2024/01/20 08:03:10;;;;;;;0.50;0.10;;;-1.50;99.90;;;;;;5049976;28;20438;-72
2024/01/20 08:05:38;;;;;;;0.50;0.10;;;-1.50;99.90;;;;;;5051181;28;20565;-72
2024/01/20 08:08:08;;;;;;;0.50;0.30;;;-1.40;99.90;;;;;;5046918;28;20447;-73
2024/01/20 08:10:36;;;;;;;0.50;0.10;;;-1.30;99.90;;;;;;5047329;28;20537;-73
2024/01/20 08:13:04;;;;;;;0.50;0.10;;;-1.30;99.90;;;;;;5059082;28;20520;-73
2024/01/20 08:15:32;;;;;;;0.50;0.10;;;-1.40;99.90;;;;;;5051613;28;20431;-73
2024/01/20 08:18:00;;;;;;;2.63;2.43;;;-1.30;99.90;;;;;;5049388;28;22926;-73
2024/01/20 08:20:28;;;;;;;0.50;0.10;;;-1.30;99.90;;;;;;5050335;28;20973;-73
2024/01/20 08:22:57;;;;;;;0.50;0.10;;;-1.30;99.90;;;;;;5050898;28;20518;-73
2024/01/20 08:25:26;;;;;;;0.50;0.20;;;-1.30;99.90;;;;;;5046887;28;21037;-73
2024/01/20 08:27:54;;;;;;;0.50;0.10;;;-1.30;99.90;;;;;;5039410;28;20990;-73
2024/01/20 08:30:23;;;;;;;0.50;0.30;;;-1.30;99.90;;;;;;5031527;28;20526;-73
2024/01/20 08:32:50;;;;;;;0.70;0.60;;;-1.20;99.90;;;;;;5031079;28;20882;-73
2024/01/20 08:35:19;;;;;;;0.50;0.10;;;-1.20;99.90;;;;;;5054547;28;20456;-73
2024/01/20 08:37:46;;;;;;;0.50;0.10;;;-1.10;99.90;;;;;;5071081;28;21008;-73
2024/01/20 08:40:15;;;;;;;0.50;0.10;;;-1.10;99.90;;;;;;5070836;28;20437;-73
2024/01/20 08:42:44;;;;;;;0.93;0.80;;;-1.00;99.90;;;;;;5058658;28;20885;-73
2024/01/20 08:45:12;;;;;;;0.50;0.10;;;-1.00;99.90;;;;;;5049573;28;20434;-73
2024/01/20 08:47:39;;;;;;;2.23;2.10;;;-1.10;99.90;;;;;;5050953;28;20466;-73
2024/01/20 08:50:08;;;;;;;0.50;0.10;;;-1.10;99.90;;;;;;5048930;28;20902;-73
2024/01/20 08:52:36;;;;;;;0.50;0.20;;;;;;;;;;5068010;28;20460;-72
2024/01/20 08:55:05;;;;;;;0.90;0.60;;;-1.10;99.90;;;;;;5070902;28;20449;-73
2024/01/20 08:57:33;;;;;;;0.50;0.10;;;-1.10;99.90;;;;;;5070519;28;20580;-73
2024/01/20 09:00:04;;;;;;;0.50;0.10;;;-1.10;99.90;;;;;;5054541;28;20515;-73
2024/01/20 09:02:32;;;;;;;0.50;0.10;;;-1.00;99.90;;;;;;5051135;28;20442;-73
2024/01/20 09:05:00;;;;;;;3.40;3.20;;;-1.00;99.90;;;;;;5051059;28;20503;-73
2024/01/20 09:07:28;;;;;;;0.50;0.10;;;-1.00;99.90;;;;;;5057734;28;20572;-74
2024/01/20 09:09:56;;;;;;;0.60;0.30;;;-0.90;99.90;;;;;;5071541;28;20540;-72
2024/01/20 09:12:26;;;;;;;0.60;0.10;;;-0.90;99.90;;;;;;5062858;28;20934;-73
2024/01/20 09:14:55;;;;;;;2.00;1.50;;;;;;;;;;5042292;28;20546;-73
2024/01/20 09:17:24;;;;;;;1.13;1.13;;;-0.90;99.90;;;;;;5046486;28;20494;-72
2024/01/20 09:19:52;;;;;;;0.50;0.10;;;-0.90;99.90;;;;;;5047213;28;21024;-73
2024/01/20 09:22:20;;;;;;;0.50;0.10;;;-0.90;99.90;;;;;;5039709;28;20449;-73
2024/01/20 09:24:48;;;;;;;0.50;0.10;;;-0.80;99.90;;;;;;5047025;28;20811;-73
2024/01/20 09:27:17;;;;;;;0.50;0.10;;;-0.80;99.90;;;;;;5041019;28;20463;-72
2024/01/20 09:29:44;;;;;;;0.50;0.10;;;-0.80;99.90;;;;;;5042352;28;20517;-72
2024/01/20 09:32:12;;;;;;;0.50;0.10;;;-0.80;99.90;;;;;;5051116;28;20537;-72
2024/01/20 09:34:41;;;;;;;0.53;0.27;;;-0.70;99.90;;;;;;5045407;28;20939;-72
2024/01/20 09:37:09;;;;;;;0.50;0.10;;;-0.80;99.90;;;;;;5046971;28;20585;-73
2024/01/20 09:39:39;;;;;;;0.50;0.17;;;-0.80;99.90;;;;;;5046378;28;20473;-72
2024/01/20 09:42:07;;;;;;;0.50;0.30;;;-0.80;99.90;;;;;;5037062;28;20446;-72
2024/01/20 09:44:35;;;;;;;0.50;0.27;;;-0.80;99.90;;;;;;5048736;28;20541;-72
2024/01/20 09:47:03;;;;;;;0.50;0.10;;;-0.90;99.90;;;;;;5037804;28;21060;-72
2024/01/20 09:49:31;;;;;;;3.23;2.93;;;-0.90;99.90;;;;;;5046400;28;20931;-72
2024/01/20 09:52:12;;;;;;;0.50;0.10;;;-0.90;99.90;;;;;;5048079;28;20823;-72
2024/01/20 09:54:53;;;;;;;0.60;0.40;;;-0.90;99.90;;;;;;5044278;28;20470;-72
2024/01/20 09:57:23;;;;;;;1.60;1.50;;;-0.90;99.90;;;;;;5050842;28;20482;-72
2024/01/20 09:59:53;;;;;;;3.60;3.03;;;-0.90;99.90;;;;;;5054722;28;20795;-72
2024/01/20 10:02:21;;;;;;;1.13;1.00;;;-0.90;99.90;;;;;;5053225;28;20450;-72
2024/01/20 10:04:51;;;;;;;4.57;3.13;;;-1.10;99.90;;;;;;5047187;28;20977;-72
2024/01/20 10:07:28;;;;;;;5.40;4.80;;;-1.30;99.90;;;;;;5050626;28;20510;-71
2024/01/20 10:09:56;;;;;;;0.50;0.20;;;-1.50;99.90;;;;;;5055629;28;20446;-76
2024/01/20 10:12:24;;;;;;;0.83;0.83;;;-1.40;99.90;;;;;;5046676;28;20885;-74
2024/01/20 10:14:52;;;;;;;2.07;0.87;;;-1.30;99.90;;;;;;5047646;28;21034;-74
2024/01/20 10:17:20;;;;;;;0.50;0.10;;;-1.30;99.90;;;;;;5054618;28;20553;-73
2024/01/20 10:19:48;;;;;;;2.70;2.27;;;-1.20;99.90;;;;;;5053275;28;20817;-74
2024/01/20 10:22:16;;;;;;;0.50;0.10;;;-1.20;99.90;;;;;;5053536;28;20499;-73
2024/01/20 10:24:49;;;;;;;1.80;1.70;;;-1.20;99.90;;;;;;5051697;28;20457;-73
2024/01/20 10:27:23;;;;;;;6.87;4.23;;;-1.30;99.90;;;;;;5051833;28;20540;-71
2024/01/20 10:29:51;;;;;;;4.17;3.80;;;-1.50;99.90;;;;;;5052307;28;20445;-74
2024/01/20 10:32:19;;;;;;;0.50;0.10;;;-1.60;99.90;;;;;;5043854;28;20500;-73
2024/01/20 10:34:47;;;;;;;2.40;2.20;;;-1.60;99.90;;;;;;5049033;28;20476;-77
2024/01/20 10:37:15;;;;;;;0.50;0.10;;;-1.60;99.90;;;;;;5054070;28;20489;-75
2024/01/20 10:39:44;;;;;;;8.90;4.20;;;-1.70;99.90;;;;;;5035123;28;20486;-77
2024/01/20 10:42:15;;;;;;;0.50;0.40;;;-1.80;99.90;;;;;;5040930;28;20427;-75
2024/01/20 10:44:51;;;;;;;0.73;0.43;;;-1.70;99.90;;;;;;5057276;28;20458;-72
2024/01/20 10:47:30;;;;;;;0.50;0.10;;;-1.60;99.90;;;;;;5060444;28;20541;-74
2024/01/20 10:50:02;;;;;;;3.27;2.73;;;-1.40;99.90;;;;;;5054309;28;20966;-72
2024/01/20 10:52:31;;;;;;;0.83;0.83;;;-1.30;99.90;;;;;;5048067;28;20451;-75
2024/01/20 10:55:00;;;;;;;0.50;0.10;;;-1.20;99.90;;;;;;5045981;28;20454;-73
2024/01/20 10:57:29;;;;;;;0.50;0.10;;;-1.10;99.90;;;;;;5050643;28;20553;-73
2024/01/20 10:59:59;;;;;;;0.50;0.10;;;-1.00;99.90;;;;;;5037511;28;20442;-75
2024/01/20 11:02:28;;;;;;;5.90;0.70;;;-1.00;99.90;;;;;;5052650;28;20580;-74
2024/01/20 11:04:56;;;;;;;4.67;4.37;;;-1.00;99.90;;;;;;5046657;28;20471;-74
2024/01/20 11:07:26;;;;;;;2.97;2.87;;;-1.10;99.90;;;;;;5048525;28;20581;-72
2024/01/20 11:09:56;;;;;;;0.60;0.40;;;-1.00;99.90;;;;;;5046461;28;20526;-74
2024/01/20 11:12:25;;;;;;;3.33;2.47;;;-0.90;99.90;;;;;;5051642;28;20462;-72
2024/01/20 11:14:56;;;;;;;0.50;0.10;;;-1.00;99.90;;;;;;5045072;28;20457;-74
2024/01/20 11:17:24;;;;;;;4.37;4.03;;;-1.10;99.90;;;;;;5052674;28;20462;-74
2024/01/20 11:19:52;;;;;;;2.60;2.40;;;-1.20;99.90;;;;;;5044223;28;20454;-74
2024/01/20 11:22:31;;;;;;;0.60;0.50;;;-1.20;99.90;;;;;;5049373;28;20462;-74
2024/01/20 11:25:02;;;;;;;0.60;0.37;;;-1.10;99.90;;;;;;5039600;28;20507;-74
2024/01/20 11:27:30;;;;;;;0.50;0.10;;;-1.10;99.90;;;;;;5040976;28;20827;-73
2024/01/20 11:30:06;;;;;;;0.50;0.10;;;-1.00;99.90;;;;;;5045990;28;20457;-73
2024/01/20 11:32:35;;;;;;;0.50;0.10;;;-1.00;99.90;;;;;;5039502;28;20455;-74
2024/01/20 11:35:05;;;;;;;0.50;0.20;;;-1.00;99.90;;;;;;5047884;28;20990;-73
2024/01/20 11:37:34;;;;;;;1.20;1.20;;;-0.90;99.90;;;;;;5048893;28;20467;-75
2024/01/20 11:40:07;;;;;;;0.50;0.20;;;-0.90;99.90;;;;;;5032027;28;20876;-74
2024/01/20 11:42:36;;;;;;;0.50;0.20;;;-0.80;99.90;;;;;;5035837;28;20450;-73
2024/01/20 11:45:06;;;;;;;0.50;0.10;;;-0.70;99.90;;;;;;5043831;28;20477;-75
2024/01/20 11:47:34;;;;;;;0.50;0.10;;;-0.60;99.90;;;;;;5050459;28;20461;-74
2024/01/20 11:50:02;;;;;;;0.60;0.30;;;-0.50;99.90;;;;;;5056308;28;20443;-74
2024/01/20 11:52:30;;;;;;;0.50;0.10;;;-0.50;99.90;;;;;;5038208;28;20534;-74
2024/01/20 11:54:58;;;;;;;1.73;1.43;;;-0.40;99.90;;;;;;5052000;28;20811;-74
2024/01/20 11:57:29;;;;;;;1.33;1.33;;;-0.50;99.90;;;;;;5046706;28;20997;-75
2024/01/20 11:59:58;;;;;;;0.50;0.10;;;-0.40;99.90;;;;;;5044877;28;20479;-74
2024/01/20 12:02:28;;;;;;;2.50;2.40;;;-0.40;99.90;;;;;;5045121;28;20545;-74
2024/01/20 12:04:55;;;;;;;0.50;0.10;;;-0.30;99.90;;;;;;5052198;28;20465;-74
2024/01/20 12:07:34;;;;;;;0.50;0.20;;;-0.30;99.90;;;;;;5048501;28;20782;-74
2024/01/20 12:10:03;;;;;;;2.00;1.80;;;-0.30;99.90;;;;;;5048640;28;20446;-75
2024/01/20 12:12:31;;;;;;;0.50;0.10;;;-0.20;99.90;;;;;;5039328;28;20520;-74
2024/01/20 12:14:59;;;;;;;0.50;0.10;;;-0.10;99.90;;;;;;5047175;28;20435;-73
2024/01/20 12:17:29;;;;;;;0.50;0.10;;;-0.10;99.90;;;;;;5049325;28;20458;-74
2024/01/20 12:19:57;;;;;;;0.50;0.10;;;0.00;99.90;;;;;;5050558;28;20481;-75
2024/01/20 12:22:25;;;;;;;0.50;0.10;;;0.00;99.90;;;;;;5045454;28;20544;-74
2024/01/20 12:24:55;;;;;;;0.50;0.10;;;;;;;;;;5046581;28;21008;-73
2024/01/20 12:27:23;;;;;;;0.50;0.10;;;0.10;99.90;;;;;;5052964;28;20564;-73
2024/01/20 12:29:52;;;;;;;5.20;2.43;;;0.10;99.90;;;;;;5044191;28;20455;-73
2024/01/20 12:32:20;;;;;;;1.27;1.10;;;0.20;99.90;;;;;;5037688;28;20443;-74
2024/01/20 12:34:49;;;;;;;0.50;0.10;;;0.20;99.90;;;;;;5041385;28;20889;-74
2024/01/20 12:37:17;;;;;;;0.50;0.10;;;0.20;99.90;;;;;;5050001;28;20474;-74
2024/01/20 12:39:45;;;;;;;0.50;0.10;;;0.20;99.90;;;;;;5037610;28;20566;-73
2024/01/20 12:42:13;;;;;;;0.50;0.10;;;0.20;99.90;;;;;;5037572;28;20473;-73
2024/01/20 12:44:41;;;;;;;0.50;0.10;;;0.30;99.90;;;;;;5040056;28;20469;-74
2024/01/20 12:47:09;;;;;;;0.50;0.10;;;0.30;99.90;;;;;;5037373;28;20466;-73
2024/01/20 12:49:37;;;;;;;0.50;0.10;;;0.20;99.90;;;;;;5035897;28;20468;-74
2024/01/20 12:52:07;;;;;;;0.50;0.20;;;0.20;99.90;;;;;;5044502;28;20561;-73
2024/01/20 12:54:35;;;;;;;1.37;1.13;;;0.30;99.90;;;;;;5039311;28;20504;-72